Terminal Aerodrome Forecast
Issued by NWS Duluth, MN

Home | Current Version | Previous Version | Text Only | Print | Product List | Glossary On
Versions: 1 2 3 4 5 6 7 8 9 10 11 12 13 14 15 16 17 18 19 20 21 22 23 24 25 26 27 28 29 30 31 32 33 34 35 36 37 38 39 40 41 42 43 44 45 46 47 48 49 50
000
FTUS43 KDLH 181400 AAA
TAFDLH
TAF AMD
KDLH 181442Z 1815/1912 08006KT 1/4SM -DZ FG VV002
      TEMPO 1815/1817 1SM BR OVC004
     FM181700 12005KT 3SM -DZ BR OVC006
     FM182000 12005KT 4SM -RA BR VCTS OVC025CB
     FM190000 10005KT 4SM -DZ BR VCSH OVC007
     FM190300 VRB05KT 1 1/2SM -DZ BR OVC003=

USA.gov is the U.S. government's official web portal to all federal, state and local government web resources and services.